sensor_id;sensor_type;location;lat;lon;timestamp;pressure;altitude;pressure_sealevel;temperature;humidity
50282;BME280;36176;51.506;10.272;2022-09-13T00:01:05;99062.38;;;13.02;86.87
50282;BME280;36176;51.506;10.272;2022-09-13T00:03:33;99061.44;;;13.03;86.95
50282;BME280;36176;51.506;10.272;2022-09-13T00:06:10;99060.31;;;13.07;86.76
50282;BME280;36176;51.506;10.272;2022-09-13T00:08:50;99060.31;;;13.07;86.79
50282;BME280;36176;51.506;10.272;2022-09-13T00:11:23;99067.25;;;13.10;86.15
50282;BME280;36176;51.506;10.272;2022-09-13T00:13:58;99062.00;;;13.08;85.96
50282;BME280;36176;51.506;10.272;2022-09-13T00:16:27;99061.03;;;13.09;86.10
50282;BME280;36176;51.506;10.272;2022-09-13T00:18:55;99054.25;;;13.05;86.21
50282;BME280;36176;51.506;10.272;2022-09-13T00:21:23;99055.94;;;13.06;86.85
50282;BME280;36176;51.506;10.272;2022-09-13T00:23:52;99057.53;;;13.09;86.42
50282;BME280;36176;51.506;10.272;2022-09-13T00:26:24;99054.03;;;13.08;86.87
50282;BME280;36176;51.506;10.272;2022-09-13T00:28:55;99036.69;;;13.03;86.62
50282;BME280;36176;51.506;10.272;2022-09-13T00:31:26;99031.09;;;12.93;86.67
50282;BME280;36176;51.506;10.272;2022-09-13T00:33:56;99029.38;;;12.92;86.95
50282;BME280;36176;51.506;10.272;2022-09-13T00:36:25;99037.53;;;12.89;86.95
50282;BME280;36176;51.506;10.272;2022-09-13T00:38:52;99026.16;;;12.87;86.60
50282;BME280;36176;51.506;10.272;2022-09-13T00:41:20;99030.72;;;12.85;86.59
50282;BME280;36176;51.506;10.272;2022-09-13T00:43:57;99032.59;;;12.83;86.73
50282;BME280;36176;51.506;10.272;2022-09-13T00:46:37;99039.94;;;12.79;87.14
50282;BME280;36176;51.506;10.272;2022-09-13T00:49:21;99030.53;;;12.73;87.73
50282;BME280;36176;51.506;10.272;2022-09-13T00:51:55;99030.72;;;12.70;86.97
50282;BME280;36176;51.506;10.272;2022-09-13T00:54:31;99028.75;;;12.74;86.86
50282;BME280;36176;51.506;10.272;2022-09-13T00:57:03;99033.94;;;12.75;87.06
50282;BME280;36176;51.506;10.272;2022-09-13T00:59:42;99040.97;;;12.76;87.67
50282;BME280;36176;51.506;10.272;2022-09-13T01:02:12;99038.50;;;12.73;87.30
50282;BME280;36176;51.506;10.272;2022-09-13T01:04:42;99033.31;;;12.72;87.17
50282;BME280;36176;51.506;10.272;2022-09-13T01:07:12;99044.09;;;12.69;87.22
50282;BME280;36176;51.506;10.272;2022-09-13T01:09:45;99037.28;;;12.65;87.15
50282;BME280;36176;51.506;10.272;2022-09-13T01:13:22;99028.75;;;12.60;87.73
50282;BME280;36176;51.506;10.272;2022-09-13T01:15:17;99029.88;;;12.55;87.56
50282;BME280;36176;51.506;10.272;2022-09-13T01:17:45;99019.47;;;12.52;87.24
50282;BME280;36176;51.506;10.272;2022-09-13T01:20:16;99004.84;;;12.45;87.50
50282;BME280;36176;51.506;10.272;2022-09-13T01:23:01;98995.72;;;12.35;88.44
50282;BME280;36176;51.506;10.272;2022-09-13T01:25:42;98993.47;;;12.29;88.72
50282;BME280;36176;51.506;10.272;2022-09-13T01:31:16;98981.31;;;12.25;89.42
50282;BME280;36176;51.506;10.272;2022-09-13T01:34:06;98983.13;;;12.24;88.43
50282;BME280;36176;51.506;10.272;2022-09-13T01:37:02;98976.06;;;12.23;89.47
50282;BME280;36176;51.506;10.272;2022-09-13T01:39:40;98969.16;;;12.21;88.73
50282;BME280;36176;51.506;10.272;2022-09-13T01:42:30;98965.00;;;12.17;89.04
50282;BME280;36176;51.506;10.272;2022-09-13T01:47:56;98969.75;;;12.11;88.80
50282;BME280;36176;51.506;10.272;2022-09-13T01:50:38;98967.25;;;12.08;90.48
50282;BME280;36176;51.506;10.272;2022-09-13T01:56:02;98953.06;;;12.09;90.50
50282;BME280;36176;51.506;10.272;2022-09-13T01:59:03;98949.63;;;12.07;90.10
50282;BME280;36176;51.506;10.272;2022-09-13T02:01:38;98955.22;;;12.03;90.17
50282;BME280;36176;51.506;10.272;2022-09-13T02:04:14;98943.75;;;12.02;90.69
50282;BME280;36176;51.506;10.272;2022-09-13T02:07:03;98946.56;;;11.99;91.17
50282;BME280;36176;51.506;10.272;2022-09-13T02:09:36;98956.34;;;11.99;90.81
50282;BME280;36176;51.506;10.272;2022-09-13T02:12:12;98952.00;;;11.98;91.00
50282;BME280;36176;51.506;10.272;2022-09-13T02:14:43;98950.19;;;11.98;90.83
50282;BME280;36176;51.506;10.272;2022-09-13T02:17:16;98952.16;;;11.95;90.14
50282;BME280;36176;51.506;10.272;2022-09-13T02:20:05;98957.31;;;11.98;91.18
50282;BME280;36176;51.506;10.272;2022-09-13T02:22:40;98954.47;;;12.01;91.02
50282;BME280;36176;51.506;10.272;2022-09-13T02:25:15;98958.25;;;11.97;90.76
50282;BME280;36176;51.506;10.272;2022-09-13T02:27:46;98945.72;;;11.99;90.76
50282;BME280;36176;51.506;10.272;2022-09-13T02:30:14;98953.81;;;11.97;90.86
50282;BME280;36176;51.506;10.272;2022-09-13T02:33:08;98947.81;;;11.94;91.38
50282;BME280;36176;51.506;10.272;2022-09-13T02:36:00;98939.38;;;11.87;91.32
50282;BME280;36176;51.506;10.272;2022-09-13T02:38:36;98939.63;;;11.82;91.49
50282;BME280;36176;51.506;10.272;2022-09-13T02:41:22;98940.28;;;11.86;91.89
50282;BME280;36176;51.506;10.272;2022-09-13T02:44:00;98930.53;;;11.86;91.20
50282;BME280;36176;51.506;10.272;2022-09-13T02:49:33;98933.25;;;11.85;91.46
50282;BME280;36176;51.506;10.272;2022-09-13T02:52:22;98932.25;;;11.87;91.32
50282;BME280;36176;51.506;10.272;2022-09-13T02:57:59;98934.34;;;11.97;91.28
50282;BME280;36176;51.506;10.272;2022-09-13T03:00:31;98930.47;;;12.02;91.63
50282;BME280;36176;51.506;10.272;2022-09-13T03:03:02;98924.78;;;12.08;92.10
50282;BME280;36176;51.506;10.272;2022-09-13T03:05:31;98921.75;;;12.15;92.51
50282;BME280;36176;51.506;10.272;2022-09-13T03:07:59;98923.72;;;12.25;92.18
50282;BME280;36176;51.506;10.272;2022-09-13T03:10:36;98918.88;;;12.32;92.28
50282;BME280;36176;51.506;10.272;2022-09-13T03:13:41;98927.22;;;12.40;91.86
50282;BME280;36176;51.506;10.272;2022-09-13T03:27:26;98921.78;;;12.83;91.66
50282;BME280;36176;51.506;10.272;2022-09-13T03:30:05;98919.59;;;12.90;91.68
50282;BME280;36176;51.506;10.272;2022-09-13T03:33:03;98926.88;;;13.01;91.44
50282;BME280;36176;51.506;10.272;2022-09-13T03:36:00;98929.03;;;13.08;90.80
50282;BME280;36176;51.506;10.272;2022-09-13T03:38:44;98928.81;;;13.11;90.60
50282;BME280;36176;51.506;10.272;2022-09-13T03:41:21;98928.44;;;13.17;90.44
50282;BME280;36176;51.506;10.272;2022-09-13T03:44:14;98924.72;;;13.20;90.26
50282;BME280;36176;51.506;10.272;2022-09-13T03:46:48;98929.06;;;13.21;90.25
50282;BME280;36176;51.506;10.272;2022-09-13T03:49:19;98931.41;;;13.26;90.43
50282;BME280;36176;51.506;10.272;2022-09-13T03:51:50;98933.59;;;13.33;89.96
50282;BME280;36176;51.506;10.272;2022-09-13T03:54:22;98933.19;;;13.39;89.22
50282;BME280;36176;51.506;10.272;2022-09-13T03:57:06;98932.88;;;13.44;89.92
50282;BME280;36176;51.506;10.272;2022-09-13T03:59:36;98926.81;;;13.42;89.66
50282;BME280;36176;51.506;10.272;2022-09-13T04:02:05;98923.84;;;13.47;89.54
50282;BME280;36176;51.506;10.272;2022-09-13T04:04:45;98922.56;;;13.52;89.74
50282;BME280;36176;51.506;10.272;2022-09-13T04:07:16;98928.53;;;13.56;89.34
50282;BME280;36176;51.506;10.272;2022-09-13T04:09:45;98918.53;;;13.59;89.26
50282;BME280;36176;51.506;10.272;2022-09-13T04:12:13;98918.44;;;13.61;89.89
50282;BME280;36176;51.506;10.272;2022-09-13T04:14:42;98912.13;;;13.62;89.67
50282;BME280;36176;51.506;10.272;2022-09-13T04:17:13;98910.13;;;13.66;90.03
50282;BME280;36176;51.506;10.272;2022-09-13T04:19:42;98917.13;;;13.67;89.91
50282;BME280;36176;51.506;10.272;2022-09-13T04:22:11;98920.69;;;13.67;90.25
50282;BME280;36176;51.506;10.272;2022-09-13T04:24:39;98921.31;;;13.71;90.24
50282;BME280;36176;51.506;10.272;2022-09-13T04:27:07;98913.09;;;13.74;89.87
50282;BME280;36176;51.506;10.272;2022-09-13T04:29:34;98926.22;;;13.77;90.01
50282;BME280;36176;51.506;10.272;2022-09-13T04:32:02;98927.69;;;13.81;90.30
50282;BME280;36176;51.506;10.272;2022-09-13T04:34:30;98915.88;;;13.85;90.92
50282;BME280;36176;51.506;10.272;2022-09-13T04:36:57;98928.97;;;13.88;90.52
50282;BME280;36176;51.506;10.272;2022-09-13T04:39:25;98928.56;;;13.94;90.36
50282;BME280;36176;51.506;10.272;2022-09-13T04:41:53;98930.16;;;13.97;90.60
50282;BME280;36176;51.506;10.272;2022-09-13T04:44:21;98925.34;;;14.02;91.14
50282;BME280;36176;51.506;10.272;2022-09-13T04:46:50;98919.59;;;14.08;91.35
50282;BME280;36176;51.506;10.272;2022-09-13T04:49:18;98915.56;;;14.15;90.26
50282;BME280;36176;51.506;10.272;2022-09-13T04:51:46;98921.50;;;14.19;90.61
50282;BME280;36176;51.506;10.272;2022-09-13T04:54:28;98927.47;;;14.22;91.41
50282;BME280;36176;51.506;10.272;2022-09-13T04:56:55;98920.09;;;14.26;91.31
50282;BME280;36176;51.506;10.272;2022-09-13T04:59:22;98918.09;;;14.30;91.57
50282;BME280;36176;51.506;10.272;2022-09-13T05:01:50;98925.34;;;14.28;91.72
50282;BME280;36176;51.506;10.272;2022-09-13T05:04:18;98914.69;;;14.28;91.93
50282;BME280;36176;51.506;10.272;2022-09-13T05:06:45;98917.88;;;14.33;92.98
50282;BME280;36176;51.506;10.272;2022-09-13T05:09:14;98909.53;;;14.37;92.57
50282;BME280;36176;51.506;10.272;2022-09-13T05:11:42;98908.03;;;14.33;93.09
50282;BME280;36176;51.506;10.272;2022-09-13T05:14:12;98907.63;;;14.39;92.31
50282;BME280;36176;51.506;10.272;2022-09-13T05:16:39;98896.84;;;14.41;92.14
50282;BME280;36176;51.506;10.272;2022-09-13T05:19:07;98901.41;;;14.39;93.32
50282;BME280;36176;51.506;10.272;2022-09-13T05:21:34;98904.81;;;14.41;93.22
50282;BME280;36176;51.506;10.272;2022-09-13T05:24:02;98893.97;;;14.44;93.00
50282;BME280;36176;51.506;10.272;2022-09-13T05:26:30;98901.50;;;14.50;92.62
50282;BME280;36176;51.506;10.272;2022-09-13T05:28:58;98905.69;;;14.54;92.47
50282;BME280;36176;51.506;10.272;2022-09-13T05:31:31;98902.34;;;14.51;93.87
50282;BME280;36176;51.506;10.272;2022-09-13T05:34:10;98892.44;;;14.53;94.86
50282;BME280;36176;51.506;10.272;2022-09-13T05:36:38;98894.78;;;14.57;94.85
50282;BME280;36176;51.506;10.272;2022-09-13T05:39:06;98891.69;;;14.63;94.61
50282;BME280;36176;51.506;10.272;2022-09-13T05:41:54;98887.94;;;14.66;94.55
50282;BME280;36176;51.506;10.272;2022-09-13T05:44:21;98897.53;;;14.68;93.95
50282;BME280;36176;51.506;10.272;2022-09-13T05:46:48;98893.06;;;14.69;94.06
50282;BME280;36176;51.506;10.272;2022-09-13T05:49:16;98891.38;;;14.68;94.02
50282;BME280;36176;51.506;10.272;2022-09-13T05:51:43;98886.22;;;14.65;94.97
50282;BME280;36176;51.506;10.272;2022-09-13T05:54:11;98901.06;;;14.69;95.26
50282;BME280;36176;51.506;10.272;2022-09-13T05:56:39;98897.19;;;14.73;95.34
50282;BME280;36176;51.506;10.272;2022-09-13T05:59:10;98885.22;;;14.79;95.55
50282;BME280;36176;51.506;10.272;2022-09-13T06:01:38;98880.53;;;14.82;95.73
50282;BME280;36176;51.506;10.272;2022-09-13T06:04:06;98884.88;;;14.83;95.49
50282;BME280;36176;51.506;10.272;2022-09-13T06:06:33;98892.22;;;14.93;94.99
50282;BME280;36176;51.506;10.272;2022-09-13T06:09:01;98876.94;;;14.95;95.79
50282;BME280;36176;51.506;10.272;2022-09-13T06:11:28;98875.72;;;14.99;95.31
50282;BME280;36176;51.506;10.272;2022-09-13T06:13:57;98872.84;;;15.02;95.73
50282;BME280;36176;51.506;10.272;2022-09-13T06:16:24;98871.44;;;15.09;95.75
50282;BME280;36176;51.506;10.272;2022-09-13T06:18:51;98872.66;;;15.16;96.05
50282;BME280;36176;51.506;10.272;2022-09-13T06:21:20;98888.84;;;15.26;95.36
50282;BME280;36176;51.506;10.272;2022-09-13T06:23:55;98877.31;;;15.37;95.29
50282;BME280;36176;51.506;10.272;2022-09-13T06:26:24;98885.72;;;15.43;95.81
50282;BME280;36176;51.506;10.272;2022-09-13T06:28:54;98884.28;;;15.50;95.20
50282;BME280;36176;51.506;10.272;2022-09-13T06:31:24;98880.28;;;15.56;95.24
50282;BME280;36176;51.506;10.272;2022-09-13T06:33:57;98884.66;;;15.57;95.58
50282;BME280;36176;51.506;10.272;2022-09-13T06:36:25;98877.88;;;15.64;95.20
50282;BME280;36176;51.506;10.272;2022-09-13T06:38:53;98877.53;;;15.69;95.26
50282;BME280;36176;51.506;10.272;2022-09-13T06:41:22;98882.31;;;15.77;95.07
50282;BME280;36176;51.506;10.272;2022-09-13T06:43:57;98884.38;;;15.84;95.85
50282;BME280;36176;51.506;10.272;2022-09-13T06:46:30;98879.28;;;15.92;95.34
50282;BME280;36176;51.506;10.272;2022-09-13T06:49:04;98886.44;;;16.03;96.09
50282;BME280;36176;51.506;10.272;2022-09-13T06:51:32;98888.97;;;16.16;95.31
50282;BME280;36176;51.506;10.272;2022-09-13T06:54:00;98885.22;;;16.30;94.47
50282;BME280;36176;51.506;10.272;2022-09-13T06:56:34;98898.59;;;16.41;94.14
50282;BME280;36176;51.506;10.272;2022-09-13T06:59:04;98898.81;;;16.49;93.13
50282;BME280;36176;51.506;10.272;2022-09-13T07:01:37;98900.25;;;16.53;92.83
50282;BME280;36176;51.506;10.272;2022-09-13T07:04:15;98883.97;;;16.56;92.98
50282;BME280;36176;51.506;10.272;2022-09-13T07:06:45;98891.97;;;16.56;93.17
50282;BME280;36176;51.506;10.272;2022-09-13T07:09:19;98903.41;;;16.58;92.10
50282;BME280;36176;51.506;10.272;2022-09-13T07:11:50;98892.09;;;16.66;92.45
50282;BME280;36176;51.506;10.272;2022-09-13T07:14:24;98891.22;;;16.77;93.22
50282;BME280;36176;51.506;10.272;2022-09-13T07:16:52;98885.16;;;16.86;93.17
50282;BME280;36176;51.506;10.272;2022-09-13T07:19:22;98887.31;;;16.92;92.98
50282;BME280;36176;51.506;10.272;2022-09-13T07:21:49;98886.81;;;16.98;92.15
50282;BME280;36176;51.506;10.272;2022-09-13T07:24:29;98881.66;;;17.07;92.45
50282;BME280;36176;51.506;10.272;2022-09-13T07:26:56;98881.16;;;17.13;92.14
50282;BME280;36176;51.506;10.272;2022-09-13T07:29:24;98879.78;;;17.18;91.36
50282;BME280;36176;51.506;10.272;2022-09-13T07:31:57;98884.91;;;17.21;90.54
50282;BME280;36176;51.506;10.272;2022-09-13T07:34:26;98891.09;;;17.22;90.19
50282;BME280;36176;51.506;10.272;2022-09-13T07:36:53;98898.75;;;17.27;90.27
50282;BME280;36176;51.506;10.272;2022-09-13T07:39:21;98895.06;;;17.28;90.76
50282;BME280;36176;51.506;10.272;2022-09-13T07:41:50;98892.00;;;17.32;90.34
50282;BME280;36176;51.506;10.272;2022-09-13T07:44:17;98890.53;;;17.39;90.02
50282;BME280;36176;51.506;10.272;2022-09-13T07:46:45;98889.75;;;17.49;89.84
50282;BME280;36176;51.506;10.272;2022-09-13T07:49:16;98894.44;;;17.56;88.56
50282;BME280;36176;51.506;10.272;2022-09-13T07:51:44;98893.22;;;17.60;88.71
50282;BME280;36176;51.506;10.272;2022-09-13T07:54:14;98896.78;;;17.71;88.39
50282;BME280;36176;51.506;10.272;2022-09-13T07:56:42;98903.69;;;17.84;88.68
50282;BME280;36176;51.506;10.272;2022-09-13T07:59:14;98904.19;;;17.99;88.51
50282;BME280;36176;51.506;10.272;2022-09-13T08:01:46;98907.34;;;18.14;87.62
50282;BME280;36176;51.506;10.272;2022-09-13T08:04:17;98902.03;;;18.24;86.29
50282;BME280;36176;51.506;10.272;2022-09-13T08:06:45;98908.13;;;18.36;86.93
50282;BME280;36176;51.506;10.272;2022-09-13T08:09:14;98905.06;;;18.40;83.51
50282;BME280;36176;51.506;10.272;2022-09-13T08:11:44;98912.59;;;18.56;82.83
50282;BME280;36176;51.506;10.272;2022-09-13T08:14:14;98904.00;;;18.72;82.53
50282;BME280;36176;51.506;10.272;2022-09-13T08:16:41;98908.31;;;18.84;83.00
50282;BME280;36176;51.506;10.272;2022-09-13T08:19:11;98915.09;;;18.98;81.85
50282;BME280;36176;51.506;10.272;2022-09-13T08:21:39;98919.38;;;19.20;82.66
50282;BME280;36176;51.506;10.272;2022-09-13T08:24:13;98907.75;;;19.39;82.56
50282;BME280;36176;51.506;10.272;2022-09-13T08:26:41;98911.44;;;19.58;81.46
50282;BME280;36176;51.506;10.272;2022-09-13T08:29:10;98908.34;;;19.72;79.79
50282;BME280;36176;51.506;10.272;2022-09-13T08:31:38;98912.44;;;19.76;77.18
50282;BME280;36176;51.506;10.272;2022-09-13T08:34:09;98916.53;;;19.90;77.48
50282;BME280;36176;51.506;10.272;2022-09-13T08:36:37;98922.72;;;20.00;76.47
50282;BME280;36176;51.506;10.272;2022-09-13T08:39:08;98918.09;;;20.20;77.17
50282;BME280;36176;51.506;10.272;2022-09-13T08:44:33;98910.38;;;21.00;71.79
50282;BME280;36176;51.506;10.272;2022-09-13T08:49:44;98907.44;;;21.47;67.19
50282;BME280;36176;51.506;10.272;2022-09-13T08:52:32;98905.81;;;21.72;66.59
50282;BME280;36176;51.506;10.272;2022-09-13T08:55:14;98905.03;;;21.80;66.25
50282;BME280;36176;51.506;10.272;2022-09-13T08:57:55;98897.78;;;21.80;66.37
50282;BME280;36176;51.506;10.272;2022-09-13T09:00:31;98903.16;;;21.80;67.58
50282;BME280;36176;51.506;10.272;2022-09-13T09:03:23;98904.31;;;21.78;63.62
50282;BME280;36176;51.506;10.272;2022-09-13T09:05:56;98900.06;;;21.49;64.75
50282;BME280;36176;51.506;10.272;2022-09-13T09:08:40;98901.84;;;21.40;66.01
50282;BME280;36176;51.506;10.272;2022-09-13T09:13:56;98900.00;;;21.41;67.04
50282;BME280;36176;51.506;10.272;2022-09-13T09:16:34;98894.75;;;21.39;66.54
50282;BME280;36176;51.506;10.272;2022-09-13T09:19:12;98894.03;;;21.37;64.45
50282;BME280;36176;51.506;10.272;2022-09-13T09:21:48;98894.22;;;21.36;63.97
50282;BME280;36176;51.506;10.272;2022-09-13T09:24:22;98900.72;;;21.33;62.81
50282;BME280;36176;51.506;10.272;2022-09-13T09:26:56;98901.59;;;21.34;64.52
50282;BME280;36176;51.506;10.272;2022-09-13T09:29:32;98889.22;;;21.41;65.52
50282;BME280;36176;51.506;10.272;2022-09-13T09:32:28;98895.47;;;21.41;63.26
50282;BME280;36176;51.506;10.272;2022-09-13T09:37:36;98892.25;;;21.28;63.06
50282;BME280;36176;51.506;10.272;2022-09-13T09:40:09;98891.88;;;21.23;62.88
50282;BME280;36176;51.506;10.272;2022-09-13T09:42:41;98884.66;;;21.23;63.49
50282;BME280;36176;51.506;10.272;2022-09-13T09:45:31;98897.66;;;21.28;62.81
50282;BME280;36176;51.506;10.272;2022-09-13T09:48:11;98890.50;;;21.37;63.10
50282;BME280;36176;51.506;10.272;2022-09-13T09:50:49;98893.19;;;21.55;62.31
50282;BME280;36176;51.506;10.272;2022-09-13T09:53:28;98890.16;;;21.76;62.53
50282;BME280;36176;51.506;10.272;2022-09-13T09:56:28;98895.03;;;21.98;60.21
50282;BME280;36176;51.506;10.272;2022-09-13T09:58:56;98889.88;;;22.13;60.17
50282;BME280;36176;51.506;10.272;2022-09-13T10:01:33;98890.69;;;22.32;60.47
50282;BME280;36176;51.506;10.272;2022-09-13T10:06:40;98888.47;;;22.69;59.40
50282;BME280;36176;51.506;10.272;2022-09-13T10:09:19;98887.13;;;22.82;57.82
50282;BME280;36176;51.506;10.272;2022-09-13T10:11:51;98885.66;;;22.87;58.44
50282;BME280;36176;51.506;10.272;2022-09-13T10:14:38;98885.72;;;23.04;57.51
50282;BME280;36176;51.506;10.272;2022-09-13T10:17:24;98883.38;;;23.33;57.92
50282;BME280;36176;51.506;10.272;2022-09-13T10:22:43;98874.06;;;23.61;56.93
50282;BME280;36176;51.506;10.272;2022-09-13T10:25:22;98870.34;;;23.70;55.07
50282;BME280;36176;51.506;10.272;2022-09-13T10:27:53;98869.34;;;23.71;57.12
50282;BME280;36176;51.506;10.272;2022-09-13T10:30:41;98865.09;;;23.85;56.83
50282;BME280;36176;51.506;10.272;2022-09-13T10:35:58;98864.63;;;23.81;54.19
50282;BME280;36176;51.506;10.272;2022-09-13T10:41:03;98863.59;;;23.82;54.69
50282;BME280;36176;51.506;10.272;2022-09-13T10:43:35;98854.78;;;23.88;55.32
50282;BME280;36176;51.506;10.272;2022-09-13T10:46:20;98850.25;;;23.81;54.22
50282;BME280;36176;51.506;10.272;2022-09-13T10:48:51;98845.84;;;23.80;55.17
50282;BME280;36176;51.506;10.272;2022-09-13T10:54:18;98839.91;;;23.68;53.51
50282;BME280;36176;51.506;10.272;2022-09-13T10:56:49;98841.63;;;23.61;53.69
50282;BME280;36176;51.506;10.272;2022-09-13T10:59:27;98837.06;;;23.61;54.06
50282;BME280;36176;51.506;10.272;2022-09-13T11:02:31;98832.84;;;23.59;55.18
50282;BME280;36176;51.506;10.272;2022-09-13T11:08:04;98828.44;;;23.66;55.71
50282;BME280;36176;51.506;10.272;2022-09-13T11:10:51;98827.06;;;23.70;56.09
50282;BME280;36176;51.506;10.272;2022-09-13T11:13:43;98821.69;;;23.78;54.43
50282;BME280;36176;51.506;10.272;2022-09-13T11:16:33;98825.84;;;24.05;53.83
50282;BME280;36176;51.506;10.272;2022-09-13T11:21:53;98814.84;;;25.46;52.35
50282;BME280;36176;51.506;10.272;2022-09-13T11:27:02;98808.72;;;26.12;44.70
50282;BME280;36176;51.506;10.272;2022-09-13T11:29:48;98805.16;;;26.12;50.26
50282;BME280;36176;51.506;10.272;2022-09-13T11:40:50;98809.53;;;25.53;47.69
50282;BME280;36176;51.506;10.272;2022-09-13T11:43:39;98808.47;;;25.39;48.15
50282;BME280;36176;51.506;10.272;2022-09-13T11:57:39;98812.03;;;25.17;49.40
50282;BME280;36176;51.506;10.272;2022-09-13T12:02:56;98811.66;;;24.97;48.38
50282;BME280;36176;51.506;10.272;2022-09-13T12:05:30;98800.06;;;24.88;48.63
50282;BME280;36176;51.506;10.272;2022-09-13T12:08:26;98805.25;;;24.90;48.55
50282;BME280;36176;51.506;10.272;2022-09-13T12:10:58;98798.97;;;24.97;47.87
50282;BME280;36176;51.506;10.272;2022-09-13T12:13:38;98800.22;;;25.33;48.79
50282;BME280;36176;51.506;10.272;2022-09-13T12:16:12;98792.31;;;25.76;47.16
50282;BME280;36176;51.506;10.272;2022-09-13T12:18:45;98785.59;;;26.16;46.30
50282;BME280;36176;51.506;10.272;2022-09-13T12:21:16;98794.47;;;26.40;46.04
50282;BME280;36176;51.506;10.272;2022-09-13T12:26:58;98787.44;;;26.60;44.97
50282;BME280;36176;51.506;10.272;2022-09-13T12:29:34;98781.00;;;26.31;44.02
50282;BME280;36176;51.506;10.272;2022-09-13T12:32:08;98772.16;;;26.08;44.45
50282;BME280;36176;51.506;10.272;2022-09-13T12:54:40;98761.19;;;24.96;47.79
50282;BME280;36176;51.506;10.272;2022-09-13T12:57:16;98765.63;;;24.74;48.78
50282;BME280;36176;51.506;10.272;2022-09-13T13:02:51;98763.59;;;24.36;50.87
50282;BME280;36176;51.506;10.272;2022-09-13T13:05:26;98769.91;;;24.29;50.39
50282;BME280;36176;51.506;10.272;2022-09-13T13:08:24;98757.81;;;24.16;50.41
50282;BME280;36176;51.506;10.272;2022-09-13T13:11:12;98769.69;;;24.07;50.94
50282;BME280;36176;51.506;10.272;2022-09-13T13:13:45;98761.25;;;24.02;51.36
50282;BME280;36176;51.506;10.272;2022-09-13T13:18:52;98754.91;;;23.78;51.47
50282;BME280;36176;51.506;10.272;2022-09-13T13:21:38;98748.31;;;23.81;51.89
50282;BME280;36176;51.506;10.272;2022-09-13T13:34:41;98742.44;;;24.40;52.30
50282;BME280;36176;51.506;10.272;2022-09-13T13:39:45;98735.84;;;24.42;52.21
50282;BME280;36176;51.506;10.272;2022-09-13T13:57:29;98715.16;;;23.87;53.51
50282;BME280;36176;51.506;10.272;2022-09-13T14:00:20;98721.94;;;23.75;53.69
50282;BME280;36176;51.506;10.272;2022-09-13T14:03:04;98714.38;;;23.62;54.25
50282;BME280;36176;51.506;10.272;2022-09-13T14:05:48;98720.81;;;23.53;54.69
50282;BME280;36176;51.506;10.272;2022-09-13T14:17:26;98720.91;;;23.20;56.59
50282;BME280;36176;51.506;10.272;2022-09-13T14:20:02;98720.06;;;23.11;57.00
50282;BME280;36176;51.506;10.272;2022-09-13T14:22:31;98717.34;;;23.03;57.18
50282;BME280;36176;51.506;10.272;2022-09-13T14:25:22;98724.97;;;23.00;58.25
50282;BME280;36176;51.506;10.272;2022-09-13T14:27:55;98728.97;;;22.96;58.96
50282;BME280;36176;51.506;10.272;2022-09-13T14:30:35;98719.56;;;22.91;58.70
50282;BME280;36176;51.506;10.272;2022-09-13T14:33:03;98721.56;;;22.89;58.90
50282;BME280;36176;51.506;10.272;2022-09-13T14:35:37;98723.06;;;22.84;59.29
50282;BME280;36176;51.506;10.272;2022-09-13T14:38:12;98722.41;;;22.73;59.58
50282;BME280;36176;51.506;10.272;2022-09-13T14:40:58;98713.63;;;22.71;60.25
50282;BME280;36176;51.506;10.272;2022-09-13T14:43:27;98714.47;;;22.72;60.31
50282;BME280;36176;51.506;10.272;2022-09-13T14:48:41;98712.97;;;22.78;60.97
50282;BME280;36176;51.506;10.272;2022-09-13T14:51:24;98721.41;;;22.83;60.41
50282;BME280;36176;51.506;10.272;2022-09-13T14:53:58;98724.94;;;22.83;60.64
50282;BME280;36176;51.506;10.272;2022-09-13T14:56:42;98726.47;;;22.86;61.01
50282;BME280;36176;51.506;10.272;2022-09-13T14:59:31;98727.28;;;22.86;60.18
50282;BME280;36176;51.506;10.272;2022-09-13T15:02:05;98722.06;;;22.93;61.33
50282;BME280;36176;51.506;10.272;2022-09-13T15:04:33;98721.91;;;22.94;61.16
50282;BME280;36176;51.506;10.272;2022-09-13T15:07:20;98722.25;;;22.91;61.33
50282;BME280;36176;51.506;10.272;2022-09-13T15:09:49;98719.56;;;23.00;61.06
50282;BME280;36176;51.506;10.272;2022-09-13T15:12:26;98723.25;;;23.15;61.66
50282;BME280;36176;51.506;10.272;2022-09-13T15:20:27;98719.28;;;23.59;60.05
50282;BME280;36176;51.506;10.272;2022-09-13T15:22:56;98717.91;;;23.63;59.95
50282;BME280;36176;51.506;10.272;2022-09-13T15:25:27;98712.34;;;23.64;59.63
50282;BME280;36176;51.506;10.272;2022-09-13T15:27:56;98712.50;;;23.63;60.24
50282;BME280;36176;51.506;10.272;2022-09-13T15:30:36;98710.81;;;23.62;59.63
50282;BME280;36176;51.506;10.272;2022-09-13T15:33:16;98715.03;;;23.64;59.90
50282;BME280;36176;51.506;10.272;2022-09-13T15:35:47;98719.72;;;23.70;59.76
50282;BME280;36176;51.506;10.272;2022-09-13T15:38:33;98714.31;;;23.70;59.93
50282;BME280;36176;51.506;10.272;2022-09-13T15:43:37;98712.16;;;23.66;60.54
50282;BME280;36176;51.506;10.272;2022-09-13T15:46:05;98717.22;;;23.61;61.17
50282;BME280;36176;51.506;10.272;2022-09-13T15:48:34;98714.41;;;23.46;60.46
50282;BME280;36176;51.506;10.272;2022-09-13T15:51:10;98716.13;;;23.39;60.89
50282;BME280;36176;51.506;10.272;2022-09-13T15:53:40;98708.69;;;23.41;61.16
50282;BME280;36176;51.506;10.272;2022-09-13T15:56:19;98706.66;;;23.43;61.30
50282;BME280;36176;51.506;10.272;2022-09-13T15:58:47;98708.88;;;23.31;61.86
50282;BME280;36176;51.506;10.272;2022-09-13T16:01:15;98711.25;;;23.26;61.91
50282;BME280;36176;51.506;10.272;2022-09-13T16:03:44;98706.84;;;23.25;62.40
50282;BME280;36176;51.506;10.272;2022-09-13T16:06:11;98706.22;;;23.23;62.48